Time;durP1;ratioP1;P1;durP2;ratioP2;P2;SDS_P1;SDS_P2;PMS_P1;PMS_P2;Temp;Humidity;BMP_temperature;BMP_pressure;BME280_temperature;BME280_humidity;BME280_pressure;Samples;Min_cycle;Max_cycle;Signal;HPM_P1;HPM_P2
2022/12/13 04:57:21;;;;;;;3.22;0.80;;;19.20;68.30;;;;;;5427487;23;20267;-73
2022/12/13 04:59:47;;;;;;;5.13;1.13;;;19.00;69.00;;;;;;4996583;28;20210;-73
2022/12/13 05:02:14;;;;;;;7.47;0.90;;;19.00;69.10;;;;;;4996585;28;20209;-73
2022/12/13 05:04:41;;;;;;;1.27;1.02;;;19.00;69.30;;;;;;4996554;28;20206;-73
2022/12/13 05:07:08;;;;;;;6.10;0.95;;;19.00;69.70;;;;;;4996146;28;20230;-72
2022/12/13 05:09:35;;;;;;;3.45;1.20;;;19.00;70.20;;;;;;4997188;28;20218;-72
2022/12/13 05:12:02;;;;;;;2.95;0.98;;;19.20;70.80;;;;;;4996349;28;20202;-71
2022/12/13 05:14:30;;;;;;;1.65;0.70;;;19.20;71.00;;;;;;4996391;28;20203;-71
2022/12/13 05:16:58;;;;;;;8.98;1.20;;;19.20;71.00;;;;;;4996387;28;20349;-71
2022/12/13 05:19:24;;;;;;;2.90;0.80;;;19.40;71.30;;;;;;4996274;28;20225;-71
2022/12/13 05:21:51;;;;;;;3.83;0.93;;;19.20;71.30;;;;;;4996230;28;20202;-72
2022/12/13 05:24:18;;;;;;;0.93;0.93;;;19.30;71.60;;;;;;4996195;28;20202;-72
2022/12/13 05:26:45;;;;;;;7.80;1.77;;;19.20;71.60;;;;;;4996081;28;20222;-74
2022/12/13 05:29:11;;;;;;;9.65;1.92;;;19.20;71.90;;;;;;4996367;28;20226;-71
2022/12/13 05:31:39;;;;;;;3.63;2.20;;;19.20;71.90;;;;;;4996036;28;20198;-71
2022/12/13 05:34:06;;;;;;;3.38;2.80;;;19.20;70.70;;;;;;4996092;28;20210;-74
2022/12/13 05:36:33;;;;;;;7.10;3.45;;;19.00;67.90;;;;;;4996178;28;20229;-75
2022/12/13 05:39:00;;;;;;;5.95;3.47;;;18.90;65.40;;;;;;4996629;28;20638;-74
2022/12/13 05:41:31;;;;;;;4.32;3.13;;;18.70;64.00;;;;;;4996419;28;20203;-71
2022/12/13 05:43:58;;;;;;;5.45;2.80;;;18.50;62.80;;;;;;4995424;28;20193;-71
2022/12/13 05:46:25;;;;;;;6.88;3.50;;;18.40;62.10;;;;;;4995721;28;20218;-70
2022/12/13 05:48:53;;;;;;;10.48;3.08;;;18.40;60.90;;;;;;4995715;28;20226;-70
2022/12/13 05:51:20;;;;;;;7.60;3.00;;;18.20;60.00;;;;;;4995664;28;20209;-70
2022/12/13 05:53:46;;;;;;;9.90;3.42;;;18.30;60.00;;;;;;4995388;28;20701;-70
2022/12/13 05:56:13;;;;;;;11.73;2.80;;;18.40;60.30;;;;;;4995543;28;20225;-70
2022/12/13 05:58:40;;;;;;;6.82;3.00;;;18.60;61.10;;;;;;4995407;28;20202;-70
2022/12/13 06:01:08;;;;;;;16.80;2.80;;;18.60;60.80;;;;;;4995514;28;20206;-70
2022/12/13 06:03:36;;;;;;;10.45;3.38;;;18.60;59.90;;;;;;4995489;28;20202;-70
2022/12/13 06:06:06;;;;;;;10.35;2.28;;;18.70;60.20;;;;;;4995201;28;20214;-70
2022/12/13 06:08:33;;;;;;;11.38;3.13;;;18.60;59.30;;;;;;4995456;28;20261;-69
2022/12/13 06:11:02;;;;;;;8.30;2.78;;;18.80;60.00;;;;;;4995051;28;20256;-69
2022/12/13 06:13:28;;;;;;;9.48;3.03;;;18.80;59.00;;;;;;4995525;28;20210;-69
2022/12/13 15:43:14;;;;;;;4.40;1.30;;;18.60;56.20;;;;;;6035421;23;20267;-76
2022/12/13 15:45:46;;;;;;;8.35;1.90;;;18.60;56.40;;;;;;4997420;28;20226;-76
2022/12/13 15:48:32;;;;;;;16.23;2.08;;;18.60;56.90;;;;;;4998816;28;20256;-75
2022/12/13 15:51:09;;;;;;;7.93;1.80;;;18.60;57.60;;;;;;4998288;28;20419;-75
2022/12/13 15:53:37;;;;;;;12.13;1.70;;;18.60;58.10;;;;;;4999096;28;20248;-75
2022/12/13 15:56:30;;;;;;;14.27;1.80;;;18.60;58.20;;;;;;4997544;28;20206;-75
2022/12/13 15:58:57;;;;;;;8.82;1.60;;;18.60;57.70;;;;;;5000242;28;20198;-75
2022/12/13 16:01:28;;;;;;;6.22;1.35;;;18.50;57.50;;;;;;4998465;28;20221;-75
2022/12/13 16:03:56;;;;;;;16.88;2.15;;;18.50;57.50;;;;;;4999588;28;20226;-75
2022/12/13 16:06:26;;;;;;;8.60;1.60;;;18.60;58.00;;;;;;4999874;28;20654;-75
2022/12/13 16:08:56;;;;;;;7.60;1.63;;;18.80;58.30;;;;;;4999221;28;20281;-75
2022/12/13 16:11:29;;;;;;;8.75;1.65;;;18.70;58.30;;;;;;4999174;28;20206;-75
2022/12/13 16:14:28;;;;;;;5.63;1.60;;;18.80;58.20;;;;;;4999433;28;20285;-75
2022/12/13 16:16:58;;;;;;;7.68;1.65;;;18.80;57.80;;;;;;4999924;28;20205;-74
2022/12/13 16:19:26;;;;;;;8.77;1.92;;;18.80;58.60;;;;;;4999943;28;20194;-76
2022/12/13 16:21:53;;;;;;;9.73;1.60;;;18.80;58.70;;;;;;4998488;28;20233;-75
2022/12/13 16:24:21;;;;;;;6.43;1.60;;;18.80;59.50;;;;;;4999695;28;20708;-75
2022/12/13 16:26:49;;;;;;;6.60;1.40;;;18.80;61.90;;;;;;4999968;28;20202;-75
2022/12/13 16:29:19;;;;;;;5.10;1.60;;;18.80;58.50;;;;;;5002777;28;20218;-75
2022/12/13 16:31:46;;;;;;;4.00;1.27;;;18.70;59.50;;;;;;4998511;28;20240;-74
2022/12/13 16:34:16;;;;;;;5.90;1.70;;;18.70;60.30;;;;;;4997200;28;20227;-73
2022/12/13 16:36:44;;;;;;;16.65;1.58;;;18.70;61.10;;;;;;4997216;28;20212;-73
2022/12/13 16:39:11;;;;;;;13.93;1.55;;;18.70;59.10;;;;;;4997123;28;20206;-72
2022/12/13 16:41:39;;;;;;;12.38;2.38;;;18.70;59.60;;;;;;4996760;28;20696;-72
2022/12/13 16:44:07;;;;;;;10.40;2.95;;;18.70;60.00;;;;;;4996901;28;20222;-71
2022/12/13 16:46:34;;;;;;;6.70;3.60;;;18.70;60.70;;;;;;4996611;28;20209;-71
2022/12/13 16:49:05;;;;;;;6.75;3.88;;;18.50;63.20;;;;;;4997113;28;20229;-73
2022/12/13 16:51:33;;;;;;;7.88;3.85;;;18.40;65.50;;;;;;4997095;28;20183;-71
2022/12/13 16:53:59;;;;;;;13.02;4.18;;;18.40;61.40;;;;;;4996472;28;20233;-71
2022/12/13 16:56:26;;;;;;;14.73;4.53;;;18.40;63.50;;;;;;4997057;28;20210;-71
2022/12/13 16:58:53;;;;;;;10.50;5.03;;;18.40;62.80;;;;;;4996531;28;20565;-71
2022/12/13 17:01:20;;;;;;;10.25;4.25;;;18.60;63.60;;;;;;4996678;28;20217;-71
2022/12/13 17:03:47;;;;;;;8.23;3.95;;;18.60;68.20;;;;;;4997749;28;20225;-73
2022/12/13 17:06:23;;;;;;;7.63;4.65;;;18.70;63.90;;;;;;4996597;28;20206;-74
2022/12/13 17:08:51;;;;;;;14.77;4.90;;;18.90;64.60;;;;;;4996540;28;20190;-74
2022/12/13 17:11:18;;;;;;;12.77;4.55;;;18.90;65.30;;;;;;4996545;28;20213;-74
2022/12/13 17:13:46;;;;;;;16.35;5.60;;;19.00;66.60;;;;;;4996087;28;20218;-73
2022/12/13 17:16:13;;;;;;;13.05;5.20;;;19.00;66.20;;;;;;4996398;28;20204;-74
2022/12/13 17:18:39;;;;;;;14.25;5.18;;;19.00;66.10;;;;;;4996424;28;20206;-74
2022/12/13 17:21:07;;;;;;;13.00;4.90;;;19.00;64.80;;;;;;4996010;28;20543;-74
2022/12/13 17:23:34;;;;;;;11.18;3.97;;;19.00;62.40;;;;;;4996229;28;20253;-74
2022/12/13 17:26:05;;;;;;;10.20;3.92;;;19.00;64.10;;;;;;4995953;28;20670;-74
2022/12/13 17:28:32;;;;;;;10.57;4.13;;;19.00;63.00;;;;;;4996237;28;20597;-74
2022/12/13 17:31:06;;;;;;;8.98;4.00;;;19.00;62.60;;;;;;4996058;28;20229;-73
2022/12/13 17:33:32;;;;;;;8.10;3.58;;;18.90;62.60;;;;;;4996108;28;20284;-73
2022/12/13 17:36:01;;;;;;;14.05;4.57;;;18.90;64.40;;;;;;4995951;28;20669;-72
2022/12/13 17:38:28;;;;;;;13.95;4.40;;;18.80;61.40;;;;;;4995224;28;20669;-72
2022/12/13 17:40:55;;;;;;;6.95;3.40;;;18.80;62.60;;;;;;4995927;28;20217;-72
2022/12/13 17:43:23;;;;;;;10.80;3.63;;;18.80;64.50;;;;;;4996346;28;20701;-71
2022/12/13 17:45:55;;;;;;;9.23;3.90;;;18.80;70.60;;;;;;4995822;28;20222;-72
2022/12/13 17:48:22;;;;;;;13.45;4.90;;;18.80;63.80;;;;;;4995729;28;20652;-73
2022/12/13 17:50:49;;;;;;;8.13;3.58;;;18.80;65.30;;;;;;4996015;28;20222;-72
2022/12/13 17:53:15;;;;;;;9.75;3.50;;;18.80;66.60;;;;;;4995782;28;20230;-73
2022/12/13 17:55:44;;;;;;;5.47;3.65;;;18.90;66.70;;;;;;4995767;28;20202;-73
2022/12/13 17:58:10;;;;;;;8.88;4.10;;;19.00;66.80;;;;;;4996218;28;20213;-74
2022/12/13 18:00:39;;;;;;;8.98;3.70;;;19.20;68.00;;;;;;4995357;28;20643;-74
2022/12/13 18:03:05;;;;;;;7.47;3.25;;;19.30;73.20;;;;;;4995202;28;20701;-71
2022/12/13 18:05:32;;;;;;;8.68;3.60;;;19.30;64.00;;;;;;4995846;28;20206;-71
2022/12/13 18:07:59;;;;;;;6.47;3.72;;;19.30;64.50;;;;;;4995736;28;20198;-74
2022/12/13 18:10:26;;;;;;;10.60;3.60;;;19.30;65.60;;;;;;4995270;28;20317;-74
2022/12/13 18:12:52;;;;;;;10.68;3.63;;;19.30;68.70;;;;;;4995277;28;20249;-74
2022/12/13 18:15:19;;;;;;;8.57;3.58;;;19.30;69.20;;;;;;4995029;28;20605;-75
2022/12/13 18:17:47;;;;;;;11.68;3.45;;;19.20;68.70;;;;;;4995256;28;20214;-74
2022/12/13 18:20:14;;;;;;;7.75;3.33;;;19.20;67.00;;;;;;4997437;28;20209;-74
2022/12/13 18:22:41;;;;;;;9.77;3.67;;;19.20;67.70;;;;;;4996862;28;20312;-75
2022/12/13 18:25:08;;;;;;;16.50;3.72;;;19.30;68.10;;;;;;4997273;28;20257;-74
2022/12/13 18:27:35;;;;;;;12.68;3.70;;;19.10;68.30;;;;;;4996269;28;20605;-73
2022/12/13 18:30:02;;;;;;;8.05;3.35;;;19.10;67.50;;;;;;4996957;28;20213;-74
2022/12/13 18:32:29;;;;;;;7.18;3.42;;;19.00;68.30;;;;;;4996059;28;20222;-74
2022/12/13 18:34:57;;;;;;;9.43;3.45;;;19.00;69.20;;;;;;4995519;28;20264;-74
2022/12/13 18:37:24;;;;;;;8.75;3.58;;;19.00;70.20;;;;;;4995326;28;20198;-74
2022/12/13 18:39:50;;;;;;;7.03;3.72;;;19.00;70.40;;;;;;4994819;28;20813;-75
2022/12/13 18:42:18;;;;;;;13.48;3.75;;;19.00;69.50;;;;;;4995270;28;20661;-76
2022/12/13 18:44:44;;;;;;;15.48;3.53;;;18.90;68.50;;;;;;4994975;28;20669;-74
2022/12/13 18:47:11;;;;;;;7.60;3.83;;;18.90;70.20;;;;;;4997181;28;20648;-75
2022/12/13 18:49:38;;;;;;;7.43;3.13;;;18.90;70.00;;;;;;4997593;28;20690;-74
2022/12/13 18:52:07;;;;;;;6.40;3.80;;;18.90;69.70;;;;;;4996938;28;20725;-75
2022/12/13 18:54:36;;;;;;;11.63;3.35;;;18.90;71.50;;;;;;4996655;28;20206;-74
2022/12/13 18:57:06;;;;;;;15.30;3.35;;;19.10;67.10;;;;;;4995231;28;20209;-77
2022/12/13 18:59:33;;;;;;;23.52;3.50;;;19.00;63.60;;;;;;4994725;28;20202;-76
2022/12/13 19:02:00;;;;;;;8.77;2.60;;;19.20;64.20;;;;;;4994871;28;20241;-75
2022/12/13 19:04:26;;;;;;;8.40;2.75;;;19.10;66.40;;;;;;4994478;28;20225;-75
2022/12/13 19:06:53;;;;;;;14.50;2.70;;;19.00;61.30;;;;;;4994690;28;20209;-75
2022/12/13 19:09:21;;;;;;;5.22;2.10;;;18.90;64.70;;;;;;4994354;28;20202;-75
2022/12/13 19:11:48;;;;;;;4.90;2.42;;;19.00;64.70;;;;;;4994430;28;20198;-72
2022/12/13 19:14:15;;;;;;;9.70;2.42;;;18.90;64.90;;;;;;4994343;28;20221;-73
2022/12/13 19:16:42;;;;;;;5.60;1.75;;;18.90;64.80;;;;;;4994285;28;20210;-73
2022/12/13 19:19:09;;;;;;;2.30;2.10;;;18.90;65.00;;;;;;4994029;28;20724;-72
2022/12/13 19:21:35;;;;;;;7.22;1.95;;;18.90;65.90;;;;;;4994276;28;20201;-72
2022/12/13 19:24:03;;;;;;;7.63;2.10;;;18.90;67.60;;;;;;4993879;28;20723;-72
2022/12/13 19:26:31;;;;;;;2.53;1.75;;;18.80;69.30;;;;;;4994242;28;20202;-72
2022/12/13 19:28:59;;;;;;;5.70;1.98;;;18.90;73.80;;;;;;4993987;28;20201;-72
2022/12/13 19:31:26;;;;;;;12.88;2.95;;;18.80;63.40;;;;;;4994369;28;20226;-73
2022/12/13 19:33:52;;;;;;;4.03;1.77;;;18.80;66.00;;;;;;4994099;28;20230;-74
2022/12/13 19:36:19;;;;;;;5.03;1.20;;;18.80;68.40;;;;;;4994458;28;20202;-74
2022/12/13 19:38:46;;;;;;;3.88;1.45;;;18.80;69.70;;;;;;4994117;28;20198;-74
2022/12/13 19:41:14;;;;;;;2.08;1.50;;;18.80;65.00;;;;;;4994141;28;20209;-74
2022/12/13 19:43:44;;;;;;;2.35;1.00;;;18.80;66.40;;;;;;4994013;28;20222;-74
2022/12/13 19:46:11;;;;;;;3.78;1.20;;;18.70;72.00;;;;;;4993730;28;20712;-74
2022/12/13 19:48:38;;;;;;;8.68;1.05;;;18.80;69.10;;;;;;4994035;28;20206;-74
2022/12/13 19:51:07;;;;;;;2.25;1.30;;;18.80;73.70;;;;;;4993658;28;20719;-74
2022/12/13 19:53:34;;;;;;;6.30;1.45;;;18.80;72.60;;;;;;4993658;28;20230;-74
2022/12/13 19:56:01;;;;;;;1.33;1.20;;;18.90;74.20;;;;;;4994038;28;20206;-74
2022/12/13 19:58:27;;;;;;;4.03;1.00;;;18.80;72.10;;;;;;4993730;28;20700;-73
2022/12/13 20:01:03;;;;;;;1.90;1.10;;;19.00;63.50;;;;;;4994036;28;20206;-73
2022/12/13 20:03:32;;;;;;;1.10;1.00;;;19.00;73.90;;;;;;4997048;28;20221;-74
2022/12/13 20:06:00;;;;;;;4.65;1.10;;;19.00;63.80;;;;;;4997750;28;20198;-73
2022/12/13 20:08:27;;;;;;;2.55;1.05;;;19.00;75.40;;;;;;4997708;28;20198;-73
2022/12/13 20:10:58;;;;;;;8.75;1.27;;;18.90;60.20;;;;;;4997598;28;20222;-73
2022/12/13 20:13:24;;;;;;;2.70;2.08;;;18.80;60.30;;;;;;4997528;28;20222;-73
2022/12/13 20:15:51;;;;;;;4.47;1.70;;;18.80;61.90;;;;;;4997242;28;20206;-73
2022/12/13 20:18:20;;;;;;;6.18;1.70;;;18.90;62.90;;;;;;4997499;28;20198;-73
2022/12/13 20:20:46;;;;;;;4.38;1.52;;;19.00;72.70;;;;;;4998097;28;20202;-73
2022/12/13 20:23:14;;;;;;;4.13;1.70;;;18.90;70.20;;;;;;4998191;28;20249;-73
2022/12/13 20:25:41;;;;;;;2.55;1.58;;;;;;;;;;4997968;28;20542;-73
2022/12/13 20:28:08;;;;;;;6.68;1.95;;;18.80;69.70;;;;;;4998251;28;20202;-73
2022/12/13 20:30:35;;;;;;;4.80;2.13;;;19.00;73.90;;;;;;4998209;28;20318;-73
2022/12/13 20:33:01;;;;;;;4.93;1.15;;;18.90;71.60;;;;;;4997636;28;20226;-73
2022/12/13 20:35:30;;;;;;;1.02;1.00;;;19.00;66.60;;;;;;4997196;28;20206;-72
2022/12/13 20:37:56;;;;;;;3.40;1.30;;;18.90;66.40;;;;;;4997205;28;20202;-72
2022/12/13 20:40:23;;;;;;;3.72;1.33;;;18.90;66.70;;;;;;4997120;28;20289;-74
2022/12/13 20:42:50;;;;;;;4.07;1.73;;;19.00;66.90;;;;;;4997489;28;20239;-76
2022/12/13 20:45:17;;;;;;;5.88;1.90;;;19.00;67.70;;;;;;4997241;28;20225;-77
2022/12/13 20:47:43;;;;;;;5.10;1.90;;;19.00;66.80;;;;;;4996863;28;20285;-76
2022/12/13 20:50:11;;;;;;;3.42;1.88;;;19.10;67.20;;;;;;4997060;28;20210;-77
2022/12/13 20:52:39;;;;;;;3.28;1.83;;;19.20;69.50;;;;;;4997055;28;20272;-76
2022/12/13 20:55:06;;;;;;;5.30;1.70;;;19.10;70.50;;;;;;4996498;28;20198;-76
2022/12/13 20:57:33;;;;;;;1.67;1.58;;;19.00;71.60;;;;;;4996829;28;20213;-77
2022/12/13 21:00:00;;;;;;;2.60;1.30;;;19.30;72.90;;;;;;4996762;28;20581;-76
2022/12/13 21:02:27;;;;;;;5.22;2.00;;;19.20;72.90;;;;;;4996640;28;20234;-76
2022/12/13 21:04:53;;;;;;;2.20;1.50;;;19.00;74.70;;;;;;4997000;28;20232;-76
2022/12/13 21:08:49;;;;;;;6.80;1.77;;;19.00;74.50;;;;;;4996735;28;20202;-76
2022/12/13 21:10:10;;;;;;;6.15;1.75;;;19.00;75.40;;;;;;4996134;28;20226;-77
2022/12/13 21:12:36;;;;;;;2.85;1.60;;;19.00;77.70;;;;;;4996508;28;20609;-77
2022/12/13 21:15:03;;;;;;;3.10;1.42;;;19.10;76.50;;;;;;4995159;28;20712;-77
2022/12/13 21:17:30;;;;;;;3.95;1.60;;;19.00;77.80;;;;;;4996399;28;20205;-77
2022/12/13 21:19:57;;;;;;;4.43;1.70;;;19.00;80.90;;;;;;4996211;28;20210;-77
2022/12/13 21:22:25;;;;;;;4.68;1.80;;;19.00;74.00;;;;;;4996278;28;20202;-77
2022/12/13 21:24:52;;;;;;;5.85;1.95;;;18.90;74.30;;;;;;4996276;28;20256;-77
2022/12/13 21:27:20;;;;;;;3.65;2.03;;;19.00;75.40;;;;;;4996133;28;20673;-77
2022/12/13 21:29:46;;;;;;;1.65;1.38;;;19.00;77.30;;;;;;4996298;28;20218;-74
2022/12/13 21:32:13;;;;;;;3.58;1.48;;;19.00;79.50;;;;;;4996162;28;20230;-75
2022/12/13 21:34:40;;;;;;;1.27;1.20;;;18.80;82.10;;;;;;4996185;28;20198;-75
2022/12/13 21:37:07;;;;;;;3.42;1.10;;;19.00;77.20;;;;;;4996335;28;20209;-75
2022/12/13 21:39:34;;;;;;;2.53;1.05;;;19.10;72.60;;;;;;4995988;28;20212;-75
2022/12/13 21:42:01;;;;;;;2.08;1.45;;;19.20;74.10;;;;;;4995966;28;20620;-75
2022/12/13 21:44:29;;;;;;;1.77;1.15;;;19.20;76.70;;;;;;4995816;28;20705;-75
2022/12/13 21:46:55;;;;;;;2.67;1.67;;;19.20;80.50;;;;;;4996037;28;20689;-75
2022/12/13 21:49:22;;;;;;;2.75;1.65;;;19.30;81.70;;;;;;4995951;28;20202;-74
2022/12/13 21:51:49;;;;;;;4.28;1.33;;;19.40;74.60;;;;;;4995721;28;20218;-74
2022/12/13 21:54:17;;;;;;;3.25;1.63;;;19.20;67.20;;;;;;4996338;28;20222;-74
2022/12/13 21:59:29;;;;;;;6.18;1.17;;;19.20;66.00;;;;;;4995852;28;20297;-74
2022/12/13 22:02:14;;;;;;;1.35;1.30;;;19.20;67.00;;;;;;4995874;28;20198;-74
2022/12/13 22:04:43;;;;;;;2.20;1.30;;;19.20;66.90;;;;;;4995636;28;20190;-74
2022/12/13 22:07:11;;;;;;;4.55;1.30;;;19.20;66.90;;;;;;4995515;28;20233;-74
2022/12/13 22:09:38;;;;;;;3.53;1.40;;;19.20;66.90;;;;;;4995442;28;20209;-74
2022/12/13 22:12:08;;;;;;;4.05;1.70;;;19.20;67.00;;;;;;4995357;28;20222;-74
2022/12/13 22:14:36;;;;;;;4.28;1.40;;;19.10;66.90;;;;;;4995322;28;20257;-74
2022/12/13 22:17:03;;;;;;;10.48;2.10;;;19.10;67.70;;;;;;4995529;28;20208;-74
2022/12/13 22:19:30;;;;;;;2.78;1.58;;;19.10;68.40;;;;;;4994982;28;20662;-75
